Terminal Aerodrome Forecast
Issued by NWS Tiyan, Guam

Home | Current Version | Previous Version | Text Only | Print | Product List | Glossary On
Versions: 1 2 3 4 5 6 7 8 9 10 11 12
000
FTPQ31 PGUM 310520
TAFGUM
TAF
PGUM 310520Z 3106/0112 35005KT P6SM VCSH SCT018 SCT050 BKN140
      TEMPO 3106/3109 5SM -TSRA SCT012CB BKN025
     FM311000 VRB04KT P6SM VCSH FEW020 SCT050=

USA.gov is the U.S. government's official web portal to all federal, state and local government web resources and services.